Time;durP1;ratioP1;P1;durP2;ratioP2;P2;SDS_P1;SDS_P2;PMS_P1;PMS_P2;Temp;Humidity;BMP_temperature;BMP_pressure;BME280_temperature;BME280_humidity;BME280_pressure;Samples;Min_cycle;Max_cycle;Signal;HPM_P1;HPM_P2
2021/07/28 00:01:27;;;;;;;;;;;23.00;58.90;;;;;;487767;242;1167;-71
2021/07/28 00:03:29;;;;;;;;;;;23.00;59.00;;;;;;487805;242;1201;-70
2021/07/28 00:05:30;;;;;;;;;;;22.90;59.10;;;;;;487938;242;1072;-71
2021/07/28 00:07:31;;;;;;;;;;;22.90;59.10;;;;;;487874;242;1248;-70
2021/07/28 00:09:33;;;;;;;;;;;22.90;59.20;;;;;;487948;242;1072;-71
2021/07/28 00:11:34;;;;;;;;;;;22.90;59.30;;;;;;487880;242;1176;-71
2021/07/28 00:13:35;;;;;;;;;;;22.90;59.30;;;;;;487899;242;1015;-71
2021/07/28 00:15:37;;;;;;;;;;;22.90;59.30;;;;;;487814;242;1186;-71
2021/07/28 00:17:43;;;;;;;;;;;22.90;59.30;;;;;;487759;242;2118;-70
2021/07/28 00:19:51;;;;;;;;;;;22.80;59.40;;;;;;487600;244;1414;-70
2021/07/28 00:24:30;;;;;;;;;;;22.90;59.20;;;;;;463253;255;1369;-70
2021/07/28 00:26:26;;;;;;;;;;;23.00;59.10;;;;;;476167;244;1388;-70
2021/07/28 00:28:27;;;;;;;;;;;22.90;59.20;;;;;;487771;242;1044;-71
2021/07/28 00:30:29;;;;;;;;;;;22.80;59.20;;;;;;487858;242;1046;-71
2021/07/28 00:32:30;;;;;;;;;;;22.90;59.30;;;;;;487861;242;1271;-71
2021/07/28 00:34:31;;;;;;;;;;;22.80;59.30;;;;;;487893;242;999;-71
2021/07/28 00:36:33;;;;;;;;;;;22.90;59.30;;;;;;487941;240;2188;-70
2021/07/28 00:38:34;;;;;;;;;;;22.80;59.30;;;;;;487971;242;1105;-70
2021/07/28 00:40:35;;;;;;;;;;;22.90;59.30;;;;;;487831;242;1071;-70
2021/07/28 00:42:37;;;;;;;;;;;22.90;59.20;;;;;;487874;242;1192;-71
2021/07/28 00:44:38;;;;;;;;;;;22.80;59.20;;;;;;487871;242;1038;-71
2021/07/28 00:46:39;;;;;;;;;;;22.90;59.20;;;;;;487893;242;1255;-71
2021/07/28 00:48:41;;;;;;;;;;;22.90;59.10;;;;;;487932;242;1178;-71
2021/07/28 00:50:42;;;;;;;;;;;22.90;59.20;;;;;;487862;242;1042;-71
2021/07/28 00:52:48;;;;;;;;;;;22.90;59.20;;;;;;487770;242;1290;-71
2021/07/28 00:54:45;;;;;;;;;;;22.90;59.20;;;;;;487653;244;1390;-70
2021/07/28 00:56:46;;;;;;;;;;;22.90;59.20;;;;;;487946;242;2194;-71
2021/07/28 00:58:48;;;;;;;;;;;23.00;59.20;;;;;;487921;242;1091;-70
2021/07/28 01:00:49;;;;;;;;;;;23.00;59.00;;;;;;487983;242;1204;-70
2021/07/28 01:02:50;;;;;;;;;;;22.90;59.10;;;;;;487914;242;1166;-71
2021/07/28 01:04:52;;;;;;;;;;;22.80;59.20;;;;;;487883;242;1126;-71
2021/07/28 01:06:53;;;;;;;;;;;22.90;59.20;;;;;;487867;242;1553;-71
2021/07/28 01:08:54;;;;;;;;;;;22.90;59.20;;;;;;487989;242;991;-71
2021/07/28 01:10:56;;;;;;;;;;;22.90;59.20;;;;;;487923;242;1293;-70
2021/07/28 01:12:57;;;;;;;;;;;22.90;59.00;;;;;;487961;242;1046;-71
2021/07/28 01:14:58;;;;;;;;;;;22.90;59.10;;;;;;487954;242;1181;-71
2021/07/28 01:17:00;;;;;;;;;;;22.90;59.00;;;;;;487835;242;2194;-71
2021/07/28 01:19:01;;;;;;;;;;;22.90;59.20;;;;;;487940;242;1176;-70
2021/07/28 01:21:02;;;;;;;;;;;22.90;59.00;;;;;;487807;242;1153;-70
2021/07/28 01:23:04;;;;;;;;;;;22.90;59.10;;;;;;487857;242;1209;-70
2021/07/28 01:25:05;;;;;;;;;;;22.90;59.10;;;;;;487877;242;1170;-71
2021/07/28 01:27:06;;;;;;;;;;;22.90;59.00;;;;;;487874;242;1177;-70
2021/07/28 01:29:08;;;;;;;;;;;22.90;59.00;;;;;;487892;242;1150;-70
2021/07/28 01:31:10;;;;;;;;;;;22.90;59.00;;;;;;487826;242;1127;-71
2021/07/28 01:33:11;;;;;;;;;;;22.90;59.00;;;;;;487869;242;1372;-70
2021/07/28 01:35:12;;;;;;;;;;;22.80;59.00;;;;;;487912;242;1049;-71
2021/07/28 01:37:14;;;;;;;;;;;22.90;59.00;;;;;;487837;242;2177;-71
2021/07/28 01:39:15;;;;;;;;;;;23.10;58.40;;;;;;487945;244;1354;-71
2021/07/28 01:41:16;;;;;;;;;;;23.00;58.60;;;;;;487722;242;1175;-70
2021/07/28 01:43:17;;;;;;;;;;;22.90;58.70;;;;;;487919;242;1139;-71
2021/07/28 01:45:18;;;;;;;;;;;22.90;58.80;;;;;;487862;242;1134;-71
2021/07/28 01:47:20;;;;;;;;;;;22.90;58.90;;;;;;487962;242;1174;-71
2021/07/28 01:49:21;;;;;;;;;;;22.90;59.00;;;;;;487910;242;1193;-71
2021/07/28 01:51:22;;;;;;;;;;;22.80;59.00;;;;;;487831;242;1299;-70
2021/07/28 01:53:24;;;;;;;;;;;22.80;59.10;;;;;;487766;242;1078;-71
2021/07/28 01:55:25;;;;;;;;;;;22.80;59.10;;;;;;487869;242;1181;-71
2021/07/28 01:57:27;;;;;;;;;;;22.80;59.00;;;;;;487883;242;2178;-70
2021/07/28 01:59:28;;;;;;;;;;;22.90;59.00;;;;;;487884;242;1089;-70
2021/07/28 02:01:29;;;;;;;;;;;22.90;58.90;;;;;;487748;242;1362;-70
2021/07/28 02:03:31;;;;;;;;;;;22.90;58.80;;;;;;487888;242;1097;-71
2021/07/28 02:05:32;;;;;;;;;;;22.90;58.70;;;;;;487868;242;1186;-70
2021/07/28 02:07:33;;;;;;;;;;;22.90;58.70;;;;;;487862;242;1123;-71
2021/07/28 02:09:35;;;;;;;;;;;22.90;58.70;;;;;;487943;242;1148;-70
2021/07/28 02:11:36;;;;;;;;;;;22.90;58.70;;;;;;487807;241;1098;-70
2021/07/28 02:13:37;;;;;;;;;;;22.90;58.80;;;;;;487799;242;1104;-70
2021/07/28 02:15:38;;;;;;;;;;;22.90;58.80;;;;;;487862;242;1058;-70
2021/07/28 02:17:40;;;;;;;;;;;23.00;58.70;;;;;;487913;242;2193;-70
2021/07/28 02:19:41;;;;;;;;;;;22.90;58.80;;;;;;487978;242;1201;-71
2021/07/28 02:21:43;;;;;;;;;;;22.80;58.90;;;;;;487925;240;1180;-70
2021/07/28 02:23:44;;;;;;;;;;;22.80;58.90;;;;;;488086;242;1067;-71
2021/07/28 02:25:45;;;;;;;;;;;22.80;58.80;;;;;;487896;242;1183;-70
2021/07/28 02:27:47;;;;;;;;;;;22.80;58.80;;;;;;488031;242;1218;-71
2021/07/28 02:29:49;;;;;;;;;;;22.80;59.10;;;;;;487863;242;1063;-71
2021/07/28 02:31:49;;;;;;;;;;;22.80;59.10;;;;;;487846;244;1436;-70
2021/07/28 02:33:51;;;;;;;;;;;22.90;59.00;;;;;;487871;242;1146;-71
2021/07/28 02:35:52;;;;;;;;;;;22.80;58.90;;;;;;487815;242;1050;-71
2021/07/28 02:37:53;;;;;;;;;;;22.80;59.00;;;;;;487809;242;2178;-71
2021/07/28 02:39:55;;;;;;;;;;;22.80;59.00;;;;;;487925;242;1022;-71
2021/07/28 02:41:56;;;;;;;;;;;22.80;58.90;;;;;;487815;242;1185;-70
2021/07/28 02:43:57;;;;;;;;;;;22.80;58.80;;;;;;487860;242;1065;-71
2021/07/28 02:45:59;;;;;;;;;;;22.80;58.80;;;;;;487797;242;1083;-71
2021/07/28 02:48:00;;;;;;;;;;;22.80;58.70;;;;;;487955;242;1160;-71
2021/07/28 02:50:01;;;;;;;;;;;22.80;59.00;;;;;;487946;242;1187;-71
2021/07/28 02:52:03;;;;;;;;;;;22.80;58.90;;;;;;487812;242;1135;-70
2021/07/28 02:54:04;;;;;;;;;;;22.70;59.10;;;;;;487803;242;1174;-71
2021/07/28 02:56:06;;;;;;;;;;;22.80;59.00;;;;;;487804;242;1235;-70
2021/07/28 02:58:07;;;;;;;;;;;22.80;59.00;;;;;;487870;242;2181;-71
2021/07/28 03:00:08;;;;;;;;;;;22.90;58.80;;;;;;487867;242;1045;-71
2021/07/28 03:02:10;;;;;;;;;;;22.90;58.80;;;;;;487828;242;1193;-71
2021/07/28 03:04:11;;;;;;;;;;;22.80;58.80;;;;;;487882;242;1139;-70
2021/07/28 03:06:12;;;;;;;;;;;22.80;58.90;;;;;;487848;242;1231;-71
2021/07/28 03:08:14;;;;;;;;;;;22.80;58.80;;;;;;487925;242;1078;-70
2021/07/28 03:10:15;;;;;;;;;;;22.70;58.90;;;;;;487928;242;1075;-71
2021/07/28 03:12:16;;;;;;;;;;;22.70;58.90;;;;;;487877;242;1035;-71
2021/07/28 03:14:18;;;;;;;;;;;22.80;58.80;;;;;;487908;242;1026;-71
2021/07/28 03:16:19;;;;;;;;;;;22.80;58.90;;;;;;487877;242;1232;-71
2021/07/28 03:18:20;;;;;;;;;;;22.80;58.90;;;;;;487892;242;2177;-71
2021/07/28 03:20:22;;;;;;;;;;;22.80;58.90;;;;;;487895;242;1147;-71
2021/07/28 03:22:24;;;;;;;;;;;22.70;59.00;;;;;;487885;242;1200;-71
2021/07/28 03:24:25;;;;;;;;;;;22.70;59.00;;;;;;487876;242;1371;-70
2021/07/28 03:26:26;;;;;;;;;;;22.70;59.00;;;;;;487922;242;1173;-71
2021/07/28 03:28:28;;;;;;;;;;;22.70;59.10;;;;;;487855;242;1137;-71
2021/07/28 03:30:29;;;;;;;;;;;22.70;59.10;;;;;;487874;241;1173;-70
2021/07/28 03:32:30;;;;;;;;;;;22.70;59.10;;;;;;487852;242;1201;-70
2021/07/28 03:34:32;;;;;;;;;;;22.80;59.10;;;;;;487863;242;1091;-71
2021/07/28 03:36:33;;;;;;;;;;;22.80;58.90;;;;;;487914;242;1254;-71
2021/07/28 03:38:34;;;;;;;;;;;22.70;59.00;;;;;;487944;242;2143;-71
2021/07/28 03:40:36;;;;;;;;;;;22.70;59.00;;;;;;487925;242;1212;-71
2021/07/28 03:42:37;;;;;;;;;;;22.70;59.00;;;;;;487847;242;1226;-71
2021/07/28 03:44:38;;;;;;;;;;;22.70;59.00;;;;;;487900;242;1043;-71
2021/07/28 03:46:40;;;;;;;;;;;22.70;59.00;;;;;;487699;242;1180;-71
2021/07/28 03:48:41;;;;;;;;;;;22.70;59.00;;;;;;487886;242;1185;-71
2021/07/28 03:50:42;;;;;;;;;;;22.70;59.00;;;;;;487954;242;1208;-71
2021/07/28 03:52:44;;;;;;;;;;;22.70;59.10;;;;;;487901;242;1137;-71
2021/07/28 03:54:45;;;;;;;;;;;22.70;59.00;;;;;;487836;242;1004;-71
2021/07/28 03:56:47;;;;;;;;;;;22.70;59.00;;;;;;487780;242;1218;-71
2021/07/28 03:58:48;;;;;;;;;;;22.70;59.10;;;;;;487854;242;2130;-71
2021/07/28 04:00:49;;;;;;;;;;;22.80;59.00;;;;;;487858;242;1225;-71
2021/07/28 04:02:50;;;;;;;;;;;22.80;59.00;;;;;;487838;242;1062;-71
2021/07/28 04:04:52;;;;;;;;;;;22.70;58.80;;;;;;487940;242;1179;-70
2021/07/28 04:06:53;;;;;;;;;;;22.70;58.90;;;;;;487864;242;1230;-70
2021/07/28 04:08:54;;;;;;;;;;;22.70;59.00;;;;;;487909;242;1055;-70
2021/07/28 04:10:56;;;;;;;;;;;22.70;58.90;;;;;;487867;242;1071;-70
2021/07/28 04:12:57;;;;;;;;;;;22.70;58.90;;;;;;487791;242;1313;-70
2021/07/28 04:14:58;;;;;;;;;;;22.70;58.90;;;;;;487786;242;1235;-70
2021/07/28 04:17:00;;;;;;;;;;;22.70;59.00;;;;;;487792;242;1137;-70
2021/07/28 04:19:01;;;;;;;;;;;22.70;59.10;;;;;;487800;242;2270;-70
2021/07/28 04:21:02;;;;;;;;;;;22.60;59.10;;;;;;487803;242;1219;-70
2021/07/28 04:23:04;;;;;;;;;;;22.70;59.10;;;;;;487742;242;1098;-70
2021/07/28 04:25:05;;;;;;;;;;;22.70;59.10;;;;;;487789;242;1029;-70
2021/07/28 04:27:06;;;;;;;;;;;22.70;59.10;;;;;;487794;242;1066;-70
2021/07/28 04:29:08;;;;;;;;;;;22.70;58.90;;;;;;487815;242;1036;-70
2021/07/28 04:31:09;;;;;;;;;;;22.70;59.00;;;;;;487667;242;1039;-70
2021/07/28 04:33:10;;;;;;;;;;;22.70;59.10;;;;;;487757;242;1057;-70
2021/07/28 04:35:12;;;;;;;;;;;22.70;59.10;;;;;;487794;242;1170;-71
2021/07/28 04:37:13;;;;;;;;;;;22.60;59.10;;;;;;487719;242;2189;-71
2021/07/28 04:39:14;;;;;;;;;;;22.60;59.20;;;;;;487844;242;1064;-71
2021/07/28 04:41:16;;;;;;;;;;;22.70;59.20;;;;;;487810;242;1059;-71
2021/07/28 04:43:17;;;;;;;;;;;22.70;59.20;;;;;;487762;242;1464;-71
2021/07/28 04:45:19;;;;;;;;;;;22.70;59.10;;;;;;487709;242;1099;-70
2021/07/28 04:47:19;;;;;;;;;;;22.60;59.10;;;;;;487618;244;1320;-70
2021/07/28 04:49:21;;;;;;;;;;;22.70;59.20;;;;;;487705;242;1027;-70
2021/07/28 04:51:22;;;;;;;;;;;22.70;59.10;;;;;;487881;242;1230;-71
2021/07/28 04:53:28;;;;;;;;;;;22.70;59.10;;;;;;487848;242;1114;-71
2021/07/28 04:55:25;;;;;;;;;;;22.70;59.10;;;;;;487417;244;1487;-70
2021/07/28 04:57:26;;;;;;;;;;;22.70;59.10;;;;;;487525;242;2185;-71
2021/07/28 04:59:27;;;;;;;;;;;22.70;59.10;;;;;;487686;242;1081;-71
2021/07/28 05:01:29;;;;;;;;;;;22.80;59.00;;;;;;487752;242;1199;-71
2021/07/28 05:03:30;;;;;;;;;;;22.80;58.90;;;;;;487799;242;1189;-70
2021/07/28 05:05:32;;;;;;;;;;;22.70;59.00;;;;;;487717;242;1167;-70
2021/07/28 05:07:33;;;;;;;;;;;22.70;59.10;;;;;;487588;242;1135;-70
2021/07/28 05:09:35;;;;;;;;;;;22.70;59.00;;;;;;487616;242;1178;-70
2021/07/28 05:11:37;;;;;;;;;;;22.70;59.10;;;;;;487661;242;1398;-70
2021/07/28 05:13:37;;;;;;;;;;;22.70;59.10;;;;;;487616;242;1236;-70
2021/07/28 05:15:39;;;;;;;;;;;22.80;59.00;;;;;;487518;242;1109;-70
2021/07/28 05:17:40;;;;;;;;;;;22.70;58.90;;;;;;487563;242;2130;-70
2021/07/28 05:19:41;;;;;;;;;;;22.70;59.00;;;;;;487554;242;1365;-71
2021/07/28 05:21:43;;;;;;;;;;;22.70;58.90;;;;;;487426;242;1191;-71
2021/07/28 05:23:44;;;;;;;;;;;22.70;58.90;;;;;;487521;242;1104;-71
2021/07/28 05:25:45;;;;;;;;;;;22.80;59.00;;;;;;487618;242;1073;-71
2021/07/28 05:27:47;;;;;;;;;;;22.70;59.00;;;;;;487713;242;1065;-70
2021/07/28 05:29:48;;;;;;;;;;;22.70;59.00;;;;;;487724;242;1168;-70
2021/07/28 05:31:49;;;;;;;;;;;22.70;59.10;;;;;;487564;242;1289;-71
2021/07/28 05:33:51;;;;;;;;;;;22.70;59.10;;;;;;487528;242;1084;-71
2021/07/28 05:35:52;;;;;;;;;;;22.80;58.90;;;;;;487585;242;1166;-71
2021/07/28 05:37:53;;;;;;;;;;;22.80;59.00;;;;;;487577;242;2123;-70
2021/07/28 05:39:55;;;;;;;;;;;22.70;59.10;;;;;;487614;242;1135;-70
2021/07/28 05:41:57;;;;;;;;;;;22.70;59.10;;;;;;487573;242;1164;-70
2021/07/28 05:43:58;;;;;;;;;;;22.70;59.20;;;;;;487521;242;1085;-70
2021/07/28 05:45:59;;;;;;;;;;;22.70;59.20;;;;;;487522;242;1054;-70
2021/07/28 05:48:01;;;;;;;;;;;22.70;59.20;;;;;;487439;242;1209;-70
2021/07/28 05:50:02;;;;;;;;;;;22.70;59.10;;;;;;487527;242;1042;-70
2021/07/28 05:52:03;;;;;;;;;;;22.70;59.00;;;;;;487533;242;1208;-70
2021/07/28 05:54:04;;;;;;;;;;;22.70;59.10;;;;;;487492;242;1136;-71
2021/07/28 05:56:06;;;;;;;;;;;22.70;59.00;;;;;;487489;242;1055;-70
2021/07/28 05:58:07;;;;;;;;;;;22.80;59.00;;;;;;487528;242;2130;-71
2021/07/28 06:00:08;;;;;;;;;;;22.70;59.00;;;;;;487366;242;1065;-70
2021/07/28 06:02:10;;;;;;;;;;;22.70;59.00;;;;;;487328;242;1055;-70
2021/07/28 06:04:11;;;;;;;;;;;22.80;58.90;;;;;;487242;242;1093;-71
2021/07/28 06:06:12;;;;;;;;;;;22.80;59.00;;;;;;487467;242;1179;-71
2021/07/28 06:08:14;;;;;;;;;;;22.80;59.00;;;;;;487453;242;1134;-71
2021/07/28 06:10:15;;;;;;;;;;;22.90;59.00;;;;;;487449;242;1065;-71
2021/07/28 06:12:18;;;;;;;;;;;22.80;58.80;;;;;;487269;242;1179;-70
2021/07/28 06:14:18;;;;;;;;;;;22.80;58.80;;;;;;487336;244;1410;-70
2021/07/28 06:16:20;;;;;;;;;;;22.80;58.90;;;;;;487420;242;1118;-71
2021/07/28 06:18:21;;;;;;;;;;;22.80;58.90;;;;;;487269;242;2158;-71
2021/07/28 06:20:22;;;;;;;;;;;22.80;59.00;;;;;;487317;242;1077;-70
2021/07/28 06:22:23;;;;;;;;;;;22.70;59.00;;;;;;487298;242;1177;-71
2021/07/28 06:24:25;;;;;;;;;;;22.80;58.90;;;;;;487279;242;1051;-70
2021/07/28 06:26:26;;;;;;;;;;;22.80;58.90;;;;;;487273;242;1065;-71
2021/07/28 06:28:27;;;;;;;;;;;22.80;59.00;;;;;;487125;242;1127;-70
2021/07/28 06:30:29;;;;;;;;;;;22.80;59.00;;;;;;487162;242;1130;-71
2021/07/28 06:32:30;;;;;;;;;;;22.70;58.90;;;;;;487081;242;1130;-71
2021/07/28 06:34:31;;;;;;;;;;;22.80;58.80;;;;;;487170;242;1049;-71
2021/07/28 06:36:33;;;;;;;;;;;22.70;59.00;;;;;;487309;242;1265;-71
2021/07/28 06:38:34;;;;;;;;;;;22.70;59.10;;;;;;487331;242;2182;-70
2021/07/28 06:40:35;;;;;;;;;;;22.80;59.00;;;;;;487348;242;1076;-70
2021/07/28 06:42:37;;;;;;;;;;;22.80;59.10;;;;;;487227;242;1149;-71
2021/07/28 06:44:38;;;;;;;;;;;22.70;59.00;;;;;;487229;242;1078;-71
2021/07/28 06:46:39;;;;;;;;;;;22.70;59.10;;;;;;487208;242;1082;-71
2021/07/28 06:48:41;;;;;;;;;;;22.70;59.20;;;;;;487233;242;1214;-70
2021/07/28 06:50:42;;;;;;;;;;;22.70;59.10;;;;;;487355;242;1073;-70
2021/07/28 06:52:43;;;;;;;;;;;22.70;59.10;;;;;;487261;240;1210;-70
2021/07/28 06:54:45;;;;;;;;;;;22.70;59.10;;;;;;487252;242;1048;-70
2021/07/28 06:56:46;;;;;;;;;;;22.70;59.10;;;;;;487111;242;1069;-70
2021/07/28 06:58:47;;;;;;;;;;;22.70;59.10;;;;;;487023;242;2154;-70
2021/07/28 07:00:48;;;;;;;;;;;22.80;59.20;;;;;;487042;242;1041;-70
2021/07/28 07:02:50;;;;;;;;;;;22.70;59.10;;;;;;487038;242;1061;-71
2021/07/28 07:04:51;;;;;;;;;;;22.70;59.00;;;;;;486994;242;1106;-70
2021/07/28 07:06:52;;;;;;;;;;;22.80;59.00;;;;;;487109;242;1570;-70
2021/07/28 07:08:54;;;;;;;;;;;22.80;59.10;;;;;;487096;242;1129;-71
2021/07/28 07:10:55;;;;;;;;;;;22.70;59.20;;;;;;486634;242;1166;-71
2021/07/28 07:12:57;;;;;;;;;;;22.80;59.20;;;;;;486978;242;1222;-71
2021/07/28 07:14:58;;;;;;;;;;;22.80;59.10;;;;;;487063;242;1053;-71
2021/07/28 07:16:59;;;;;;;;;;;22.70;59.20;;;;;;487149;242;1133;-71
2021/07/28 07:19:01;;;;;;;;;;;22.70;59.20;;;;;;487008;242;2193;-71
2021/07/28 07:21:02;;;;;;;;;;;22.70;59.20;;;;;;486963;242;1495;-71
2021/07/28 07:23:03;;;;;;;;;;;22.80;59.20;;;;;;487121;242;1191;-71
2021/07/28 07:25:05;;;;;;;;;;;22.70;59.30;;;;;;487067;242;1204;-70
2021/07/28 07:27:06;;;;;;;;;;;22.70;59.30;;;;;;487086;242;1137;-71
2021/07/28 07:29:07;;;;;;;;;;;22.70;59.20;;;;;;487087;242;1046;-71
2021/07/28 07:31:09;;;;;;;;;;;22.80;59.30;;;;;;487061;242;1567;-70
2021/07/28 07:35:30;;;;;;;;;;;22.80;59.20;;;;;;487002;244;1216;-70
2021/07/28 07:37:31;;;;;;;;;;;22.80;59.20;;;;;;486881;242;1224;-71
2021/07/28 07:39:32;;;;;;;;;;;22.80;59.40;;;;;;486904;242;2224;-71
2021/07/28 07:41:34;;;;;;;;;;;22.80;59.30;;;;;;487016;242;1264;-71
2021/07/28 07:43:35;;;;;;;;;;;22.80;59.30;;;;;;487393;242;1061;-71
2021/07/28 07:45:37;;;;;;;;;;;22.80;59.30;;;;;;487683;242;872;-71
2021/07/28 07:47:38;;;;;;;;;;;22.80;59.30;;;;;;487647;242;1281;-71
2021/07/28 07:49:39;;;;;;;;;;;22.70;59.30;;;;;;486957;242;1083;-70
2021/07/28 07:51:40;;;;;;;;;;;22.80;59.40;;;;;;487109;242;1138;-70
2021/07/28 07:53:42;;;;;;;;;;;22.70;59.50;;;;;;487193;242;1206;-71
2021/07/28 07:55:43;;;;;;;;;;;22.80;59.40;;;;;;487122;242;1296;-71
2021/07/28 07:57:44;;;;;;;;;;;22.80;59.40;;;;;;487001;242;1167;-71
2021/07/28 07:59:45;;;;;;;;;;;22.80;59.30;;;;;;486905;242;2174;-70
2021/07/28 08:01:47;;;;;;;;;;;22.70;59.70;;;;;;486676;242;1130;-71
2021/07/28 08:03:50;;;;;;;;;;;22.70;59.80;;;;;;486691;242;1223;-70
2021/07/28 08:05:49;;;;;;;;;;;22.70;59.80;;;;;;486826;244;1411;-71
2021/07/28 08:07:51;;;;;;;;;;;22.70;59.70;;;;;;487452;242;1097;-71
2021/07/28 08:09:52;;;;;;;;;;;22.70;59.80;;;;;;487112;242;1164;-71
2021/07/28 08:11:56;;;;;;;;;;;22.60;59.80;;;;;;486881;242;1228;-71
2021/07/28 08:13:56;;;;;;;;;;;22.70;59.70;;;;;;486869;242;1365;-71
2021/07/28 08:15:57;;;;;;;;;;;22.70;59.60;;;;;;486795;242;1186;-70
2021/07/28 08:18:00;;;;;;;;;;;22.70;59.50;;;;;;487045;242;1149;-71
2021/07/28 08:20:00;;;;;;;;;;;22.80;59.40;;;;;;486899;244;2174;-71
2021/07/28 08:22:02;;;;;;;;;;;22.70;59.60;;;;;;486775;242;1198;-71
2021/07/28 08:24:03;;;;;;;;;;;22.70;59.60;;;;;;486911;242;1250;-71
2021/07/28 08:26:04;;;;;;;;;;;22.70;59.60;;;;;;486878;242;1217;-71
2021/07/28 08:28:06;;;;;;;;;;;22.70;59.60;;;;;;486859;242;1186;-70
2021/07/28 08:30:07;;;;;;;;;;;22.80;59.60;;;;;;486878;242;1080;-71
2021/07/28 08:32:08;;;;;;;;;;;22.70;59.60;;;;;;486773;242;1215;-71
2021/07/28 08:34:09;;;;;;;;;;;22.80;59.60;;;;;;486860;242;1105;-70
2021/07/28 08:36:11;;;;;;;;;;;23.00;58.80;;;;;;486902;242;1129;-71
2021/07/28 08:38:12;;;;;;;;;;;22.80;59.20;;;;;;487028;242;1158;-71
2021/07/28 08:40:13;;;;;;;;;;;22.80;59.30;;;;;;486905;242;2196;-71
2021/07/28 08:42:15;;;;;;;;;;;22.80;59.30;;;;;;486883;242;1152;-71
2021/07/28 08:44:16;;;;;;;;;;;22.80;59.40;;;;;;486941;242;1048;-71
2021/07/28 08:46:18;;;;;;;;;;;22.80;59.50;;;;;;486705;242;1312;-71
2021/07/28 08:48:19;;;;;;;;;;;22.60;59.80;;;;;;486644;242;1101;-70
2021/07/28 08:50:20;;;;;;;;;;;22.60;59.90;;;;;;487028;242;1207;-71
2021/07/28 08:52:22;;;;;;;;;;;22.30;60.60;;;;;;487287;242;1235;-71
2021/07/28 08:54:23;;;;;;;;;;;22.60;60.00;;;;;;487220;242;1020;-70
2021/07/28 08:56:24;;;;;;;;;;;22.60;59.90;;;;;;487496;242;807;-70
2021/07/28 08:58:26;;;;;;;;;;;22.60;59.90;;;;;;487466;242;1314;-70
2021/07/28 09:00:27;;;;;;;;;;;22.60;59.80;;;;;;487497;242;2193;-70
2021/07/28 09:02:28;;;;;;;;;;;22.50;60.10;;;;;;487230;242;1029;-70
2021/07/28 09:04:30;;;;;;;;;;;22.70;59.90;;;;;;487546;242;1071;-70
2021/07/28 09:06:31;;;;;;;;;;;22.60;59.90;;;;;;487075;242;1295;-70
2021/07/28 09:08:32;;;;;;;;;;;22.60;59.80;;;;;;487020;242;1301;-70
2021/07/28 09:10:34;;;;;;;;;;;22.70;59.70;;;;;;487048;242;1122;-70
2021/07/28 09:12:35;;;;;;;;;;;22.60;59.70;;;;;;486739;242;1085;-71
2021/07/28 09:14:40;;;;;;;;;;;22.70;59.70;;;;;;486765;242;1155;-71
2021/07/28 09:16:38;;;;;;;;;;;22.70;59.80;;;;;;486506;244;1412;-70
2021/07/28 09:18:39;;;;;;;;;;;22.70;59.60;;;;;;486740;242;1107;-70
2021/07/28 09:20:41;;;;;;;;;;;22.70;59.50;;;;;;486801;242;2181;-70
2021/07/28 09:22:42;;;;;;;;;;;22.70;59.60;;;;;;486834;242;1112;-70
2021/07/28 09:24:44;;;;;;;;;;;22.70;59.80;;;;;;486901;242;1179;-70
2021/07/28 09:26:47;;;;;;;;;;;22.60;59.70;;;;;;486782;242;1364;-70
2021/07/28 09:28:46;;;;;;;;;;;22.80;59.50;;;;;;486755;242;1397;-70
2021/07/28 09:30:48;;;;;;;;;;;22.70;59.50;;;;;;486790;242;1083;-71
2021/07/28 09:32:49;;;;;;;;;;;22.60;59.60;;;;;;486646;242;1214;-71
2021/07/28 09:34:50;;;;;;;;;;;22.70;59.60;;;;;;485798;242;1201;-71
2021/07/28 09:36:52;;;;;;;;;;;22.60;59.70;;;;;;486903;242;1204;-70
2021/07/28 09:38:54;;;;;;;;;;;22.70;59.80;;;;;;487005;242;1197;-70
2021/07/28 09:40:55;;;;;;;;;;;22.70;59.70;;;;;;486895;240;2181;-70
2021/07/28 09:42:56;;;;;;;;;;;22.60;59.80;;;;;;486676;242;1263;-70
2021/07/28 09:44:59;;;;;;;;;;;22.70;59.60;;;;;;486742;242;1066;-71
2021/07/28 09:46:59;;;;;;;;;;;22.60;59.70;;;;;;487140;244;1366;-70
2021/07/28 09:49:00;;;;;;;;;;;22.70;59.60;;;;;;487300;242;1081;-70
2021/07/28 09:51:01;;;;;;;;;;;22.70;59.60;;;;;;486921;242;1157;-70
2021/07/28 09:53:03;;;;;;;;;;;22.60;59.60;;;;;;487204;242;1105;-71
2021/07/28 09:55:04;;;;;;;;;;;22.60;59.70;;;;;;486858;242;1062;-71
2021/07/28 09:57:09;;;;;;;;;;;22.60;59.80;;;;;;487074;242;1207;-71
2021/07/28 09:59:06;;;;;;;;;;;22.70;59.80;;;;;;486698;244;2185;-71
2021/07/28 10:01:08;;;;;;;;;;;22.60;59.80;;;;;;487022;242;1166;-70
2021/07/28 10:03:09;;;;;;;;;;;22.60;59.90;;;;;;486958;242;1101;-70
2021/07/28 10:05:10;;;;;;;;;;;22.60;59.90;;;;;;486934;242;1187;-70
2021/07/28 10:07:12;;;;;;;;;;;22.60;59.80;;;;;;486602;242;1344;-70
2021/07/28 10:09:14;;;;;;;;;;;22.60;59.90;;;;;;486783;242;1282;-70
2021/07/28 10:11:14;;;;;;;;;;;22.60;59.90;;;;;;486615;242;1229;-71
2021/07/28 10:13:16;;;;;;;;;;;22.60;59.80;;;;;;486641;242;1099;-71
2021/07/28 10:15:17;;;;;;;;;;;22.60;59.80;;;;;;486695;242;1157;-71
2021/07/28 10:17:19;;;;;;;;;;;22.50;59.90;;;;;;486648;242;1195;-71
2021/07/28 10:19:20;;;;;;;;;;;22.60;59.80;;;;;;486673;242;2197;-71
2021/07/28 10:21:21;;;;;;;;;;;22.60;59.60;;;;;;486648;242;1425;-71
2021/07/28 10:23:23;;;;;;;;;;;22.70;59.60;;;;;;486685;242;1196;-70
2021/07/28 10:25:24;;;;;;;;;;;22.70;59.50;;;;;;486728;242;1076;-71
2021/07/28 10:27:25;;;;;;;;;;;22.60;59.70;;;;;;486714;242;1375;-71
2021/07/28 10:29:27;;;;;;;;;;;22.70;59.80;;;;;;486771;242;1208;-70
2021/07/28 10:31:29;;;;;;;;;;;22.60;59.60;;;;;;486685;242;1181;-70
2021/07/28 10:33:30;;;;;;;;;;;22.70;59.60;;;;;;487381;242;1376;-70
2021/07/28 10:35:31;;;;;;;;;;;22.60;59.40;;;;;;487059;242;991;-70
2021/07/28 10:37:32;;;;;;;;;;;22.60;59.30;;;;;;487593;242;874;-71
2021/07/28 10:39:34;;;;;;;;;;;22.70;59.40;;;;;;487442;242;2174;-71
2021/07/28 10:41:35;;;;;;;;;;;22.70;59.50;;;;;;487366;242;1125;-71
2021/07/28 10:43:36;;;;;;;;;;;22.70;59.40;;;;;;487447;242;919;-71
2021/07/28 10:45:38;;;;;;;;;;;22.70;59.30;;;;;;487163;242;1072;-70
2021/07/28 10:47:39;;;;;;;;;;;22.70;59.20;;;;;;486920;242;1178;-71
2021/07/28 10:49:40;;;;;;;;;;;22.70;59.30;;;;;;487014;242;1293;-70
2021/07/28 10:51:41;;;;;;;;;;;22.70;59.40;;;;;;487097;242;1260;-70
2021/07/28 10:53:43;;;;;;;;;;;22.60;59.50;;;;;;487168;242;1268;-70
2021/07/28 10:55:44;;;;;;;;;;;22.60;59.50;;;;;;486775;242;1265;-71
2021/07/28 10:57:46;;;;;;;;;;;22.70;59.40;;;;;;487592;242;1010;-70
2021/07/28 10:59:47;;;;;;;;;;;22.70;59.50;;;;;;487653;242;2189;-71
2021/07/28 11:01:48;;;;;;;;;;;22.60;59.50;;;;;;487172;242;1375;-71
2021/07/28 11:03:50;;;;;;;;;;;22.60;59.50;;;;;;486953;242;1056;-71
2021/07/28 11:05:52;;;;;;;;;;;22.70;59.30;;;;;;486890;242;1270;-71
2021/07/28 11:07:52;;;;;;;;;;;22.70;59.30;;;;;;486971;242;1315;-70
2021/07/28 11:09:54;;;;;;;;;;;22.80;59.30;;;;;;486962;242;1156;-71
2021/07/28 11:11:55;;;;;;;;;;;22.80;59.20;;;;;;487089;242;1155;-71
2021/07/28 11:13:56;;;;;;;;;;;22.70;59.20;;;;;;487366;242;1334;-71
2021/07/28 11:15:58;;;;;;;;;;;22.80;59.20;;;;;;487305;242;1411;-71
2021/07/28 11:17:59;;;;;;;;;;;22.80;59.00;;;;;;487349;242;1294;-71
2021/07/28 11:20:00;;;;;;;;;;;22.80;59.20;;;;;;487394;242;2174;-71
2021/07/28 11:22:02;;;;;;;;;;;22.80;59.20;;;;;;487270;242;1159;-71
2021/07/28 11:24:04;;;;;;;;;;;22.90;59.00;;;;;;487505;242;1116;-71
2021/07/28 11:26:04;;;;;;;;;;;22.90;59.00;;;;;;487085;242;1415;-70
2021/07/28 11:28:05;;;;;;;;;;;22.90;59.00;;;;;;487660;242;1056;-71
2021/07/28 11:30:07;;;;;;;;;;;23.00;58.80;;;;;;487182;242;1153;-71
2021/07/28 11:32:08;;;;;;;;;;;23.10;58.60;;;;;;486897;242;1185;-71
2021/07/28 11:34:10;;;;;;;;;;;23.20;58.40;;;;;;486990;242;1255;-70
2021/07/28 11:36:11;;;;;;;;;;;23.20;58.20;;;;;;486864;242;1234;-70
2021/07/28 11:38:13;;;;;;;;;;;23.30;58.10;;;;;;486745;242;1121;-70
2021/07/28 11:40:14;;;;;;;;;;;23.30;58.20;;;;;;486896;242;2190;-70
2021/07/28 11:42:15;;;;;;;;;;;23.30;58.30;;;;;;486893;242;1381;-70
2021/07/28 11:44:17;;;;;;;;;;;23.30;58.50;;;;;;487343;242;779;-70
2021/07/28 11:46:18;;;;;;;;;;;23.20;58.80;;;;;;486791;242;1338;-70
2021/07/28 11:48:19;;;;;;;;;;;23.20;59.20;;;;;;487033;242;983;-70
2021/07/28 11:50:21;;;;;;;;;;;23.20;59.50;;;;;;486978;242;1449;-70
2021/07/28 11:52:22;;;;;;;;;;;23.20;59.90;;;;;;487024;242;1222;-70
2021/07/28 11:54:23;;;;;;;;;;;23.10;60.10;;;;;;487444;242;1103;-70
2021/07/28 11:56:24;;;;;;;;;;;23.10;60.30;;;;;;486930;242;1176;-70
2021/07/28 11:58:26;;;;;;;;;;;23.10;60.40;;;;;;487451;242;734;-70
2021/07/28 12:00:27;;;;;;;;;;;23.00;60.60;;;;;;487409;242;2177;-70
2021/07/28 12:02:28;;;;;;;;;;;23.00;60.50;;;;;;487208;242;1116;-70